Time;durP1;ratioP1;P1;durP2;ratioP2;P2;SDS_P1;SDS_P2;PMS_P1;PMS_P2;Temp;Humidity;BMP_temperature;BMP_pressure;BME280_temperature;BME280_humidity;BME280_pressure;Samples;Min_cycle;Max_cycle;Signal;HPM_P1;HPM_P2
2021/03/17 00:02:14;;;;;;;5.20;3.10;;;4.00;99.90;;;;;;5076768;28;20185;-63
2021/03/17 00:04:40;;;;;;;5.27;3.60;;;4.00;99.90;;;;;;5069982;28;20232;-63
2021/03/17 00:07:05;;;;;;;5.40;3.37;;;4.00;99.90;;;;;;5069185;28;20589;-66
2021/03/17 00:09:31;;;;;;;5.93;3.87;;;4.10;99.90;;;;;;5067045;28;20242;-64
2021/03/17 00:11:57;;;;;;;5.33;4.00;;;4.10;99.90;;;;;;5069713;28;20192;-63
2021/03/17 00:14:23;;;;;;;4.70;3.40;;;4.10;99.90;;;;;;5068595;28;20189;-63
2021/03/17 00:16:49;;;;;;;5.17;4.13;;;4.10;99.90;;;;;;5065152;28;20176;-63
2021/03/17 00:19:15;;;;;;;5.80;3.93;;;4.10;99.90;;;;;;5067855;28;20502;-63
2021/03/17 00:21:40;;;;;;;6.23;3.93;;;4.10;99.90;;;;;;5069662;28;20182;-63
2021/03/17 00:24:07;;;;;;;5.40;4.13;;;4.10;99.90;;;;;;5067180;28;20736;-64
2021/03/17 00:26:33;;;;;;;8.82;4.10;;;4.20;99.90;;;;;;5070063;28;20176;-64
2021/03/17 00:28:59;;;;;;;5.07;4.00;;;4.20;99.90;;;;;;5068541;28;20189;-64
2021/03/17 00:31:27;;;;;;;5.77;4.30;;;4.20;99.90;;;;;;5067532;28;20995;-64
2021/03/17 00:33:52;;;;;;;6.75;3.90;;;4.20;99.90;;;;;;5068217;28;20624;-64
2021/03/17 00:36:18;;;;;;;6.50;4.47;;;4.20;99.90;;;;;;5067839;28;20189;-64
2021/03/17 00:38:43;;;;;;;4.67;4.00;;;4.30;99.90;;;;;;5067959;28;20231;-64
2021/03/17 00:41:10;;;;;;;5.50;4.40;;;4.30;99.90;;;;;;5068572;28;20200;-64
2021/03/17 00:43:36;;;;;;;5.57;3.75;;;4.30;99.90;;;;;;5067150;28;21066;-64
2021/03/17 00:46:02;;;;;;;5.17;4.00;;;4.30;99.90;;;;;;5067807;28;20201;-64
2021/03/17 00:48:27;;;;;;;5.45;4.43;;;4.30;99.90;;;;;;5066266;28;20189;-64
2021/03/17 00:50:53;;;;;;;7.63;4.20;;;4.40;99.90;;;;;;5067237;28;20246;-65
2021/03/17 00:53:19;;;;;;;8.77;4.80;;;4.40;99.90;;;;;;5068139;28;20228;-63
2021/03/17 00:55:45;;;;;;;7.00;4.30;;;4.40;99.90;;;;;;5068353;28;20177;-63
2021/03/17 00:58:10;;;;;;;6.33;4.60;;;4.30;99.90;;;;;;5067674;28;20495;-63
2021/03/17 01:00:36;;;;;;;6.50;4.13;;;4.30;99.90;;;;;;5067631;28;20192;-63
2021/03/17 01:03:01;;;;;;;7.20;5.47;;;4.30;99.90;;;;;;5068571;28;20260;-63
2021/03/17 01:05:28;;;;;;;10.23;5.27;;;4.30;99.90;;;;;;5067799;28;20631;-63
2021/03/17 01:07:54;;;;;;;7.10;4.50;;;4.30;99.90;;;;;;5068671;28;20225;-63
2021/03/17 01:10:41;;;;;;;12.43;5.50;;;4.30;99.90;;;;;;5067584;28;20196;-66
2021/03/17 01:13:07;;;;;;;7.47;4.95;;;4.30;99.90;;;;;;5068177;28;20644;-63
2021/03/17 01:15:33;;;;;;;9.53;6.53;;;4.30;99.90;;;;;;5066011;28;20189;-65
2021/03/17 01:17:59;;;;;;;7.63;5.40;;;4.30;99.90;;;;;;5063835;28;20207;-63
2021/03/17 01:20:27;;;;;;;13.63;6.70;;;4.20;99.90;;;;;;5066104;28;20184;-63
2021/03/17 01:22:54;;;;;;;11.10;5.88;;;4.20;99.90;;;;;;5067857;28;20177;-63
2021/03/17 01:25:29;;;;;;;8.63;5.57;;;4.10;99.90;;;;;;5066547;28;20231;-63
2021/03/17 01:27:54;;;;;;;8.45;5.57;;;4.10;99.90;;;;;;5067217;28;20259;-63
2021/03/17 01:30:25;;;;;;;10.13;5.83;;;4.10;99.90;;;;;;5068423;28;20271;-64
2021/03/17 01:32:50;;;;;;;8.90;5.95;;;4.10;99.90;;;;;;5068158;28;20181;-63
2021/03/17 01:35:16;;;;;;;9.00;6.20;;;4.10;99.90;;;;;;5067907;28;20566;-65
2021/03/17 01:37:42;;;;;;;10.67;6.23;;;4.10;99.90;;;;;;5065786;28;20200;-63
2021/03/17 01:40:10;;;;;;;8.10;5.60;;;4.10;99.90;;;;;;5067684;28;20698;-63
2021/03/17 01:42:35;;;;;;;8.95;6.13;;;4.10;99.90;;;;;;5068347;28;20588;-65
2021/03/17 01:45:01;;;;;;;8.00;5.70;;;4.10;99.90;;;;;;5067014;28;20181;-63
2021/03/17 01:47:27;;;;;;;8.83;6.07;;;4.10;99.90;;;;;;5068720;28;20166;-64
2021/03/17 01:49:52;;;;;;;8.30;5.97;;;4.10;99.90;;;;;;5066886;28;20181;-64
2021/03/17 01:52:18;;;;;;;11.83;6.40;;;4.10;99.90;;;;;;5067953;28;20247;-63
2021/03/17 01:54:43;;;;;;;10.07;6.90;;;4.00;99.90;;;;;;5068283;28;20231;-63
2021/03/17 01:57:11;;;;;;;10.43;7.23;;;4.00;99.90;;;;;;5067507;28;20643;-63
2021/03/17 01:59:36;;;;;;;10.48;7.07;;;4.00;99.90;;;;;;5086367;28;20176;-63
2021/03/17 02:02:03;;;;;;;10.70;7.30;;;3.90;99.90;;;;;;5075398;28;20533;-65
2021/03/17 02:04:30;;;;;;;10.20;7.15;;;3.90;99.90;;;;;;5073385;28;20229;-68
2021/03/17 02:06:56;;;;;;;11.55;7.10;;;3.80;99.90;;;;;;5072342;28;20827;-64
2021/03/17 02:09:21;;;;;;;10.95;7.65;;;3.60;99.90;;;;;;5071259;28;20272;-64
2021/03/17 02:12:00;;;;;;;11.93;8.00;;;3.60;99.90;;;;;;5069575;28;20704;-63
2021/03/17 02:14:55;;;;;;;16.08;8.18;;;3.50;99.90;;;;;;5070189;28;20187;-63
2021/03/17 02:17:26;;;;;;;10.20;7.85;;;3.40;99.90;;;;;;5062872;28;20245;-65
2021/03/17 02:20:22;;;;;;;14.63;8.38;;;3.30;99.90;;;;;;5069076;28;20529;-64
2021/03/17 02:23:28;;;;;;;13.27;8.43;;;3.30;99.90;;;;;;5071771;28;20189;-64
2021/03/17 02:26:15;;;;;;;10.15;7.80;;;3.20;99.90;;;;;;5068378;28;20326;-64
2021/03/17 02:29:10;;;;;;;14.43;8.60;;;3.10;99.90;;;;;;5058142;28;20698;-64
2021/03/17 02:31:39;;;;;;;13.40;8.75;;;3.00;99.90;;;;;;5070002;28;20553;-64
2021/03/17 02:34:08;;;;;;;12.80;8.25;;;3.00;99.90;;;;;;5069847;28;20183;-64
2021/03/17 02:36:58;;;;;;;12.30;7.60;;;3.00;99.90;;;;;;5070953;28;21008;-65
2021/03/17 02:39:36;;;;;;;13.45;8.63;;;2.90;99.90;;;;;;5070400;28;20196;-66
2021/03/17 02:42:09;;;;;;;12.80;8.52;;;2.90;99.90;;;;;;5070956;28;20588;-64
2021/03/17 02:44:42;;;;;;;13.32;8.25;;;2.90;99.90;;;;;;5071232;28;20180;-64
2021/03/17 02:47:07;;;;;;;12.40;7.40;;;2.90;99.90;;;;;;5069968;28;20201;-65
2021/03/17 02:49:38;;;;;;;16.27;8.20;;;2.90;99.90;;;;;;5070376;28;20701;-64
2021/03/17 02:52:05;;;;;;;14.15;9.90;;;2.90;99.90;;;;;;5070886;28;20187;-64
2021/03/17 02:54:33;;;;;;;10.75;7.40;;;2.90;99.90;;;;;;5068870;28;20976;-64
2021/03/17 02:57:16;;;;;;;13.63;8.00;;;2.90;99.90;;;;;;5068257;28;20200;-64
2021/03/17 02:59:43;;;;;;;13.95;7.53;;;2.90;99.90;;;;;;5070829;28;20188;-64
2021/03/17 03:02:11;;;;;;;14.55;7.97;;;2.90;99.90;;;;;;5075774;28;20188;-65
2021/03/17 03:04:37;;;;;;;13.18;7.50;;;2.90;99.90;;;;;;5079126;28;20225;-64
2021/03/17 03:07:04;;;;;;;14.07;8.32;;;2.90;99.90;;;;;;5071221;28;20704;-65
2021/03/17 03:09:30;;;;;;;16.20;8.18;;;3.00;99.90;;;;;;5067862;28;20223;-65
2021/03/17 03:11:59;;;;;;;13.67;8.03;;;3.00;99.90;;;;;;5069223;28;20216;-65
2021/03/17 03:14:26;;;;;;;13.18;8.05;;;3.00;99.90;;;;;;5070847;28;20191;-65
2021/03/17 03:16:55;;;;;;;13.38;8.15;;;3.00;99.90;;;;;;5069015;28;20181;-64
2021/03/17 03:19:24;;;;;;;12.18;8.02;;;3.00;99.90;;;;;;5066156;28;20367;-67
2021/03/17 03:21:52;;;;;;;13.95;8.60;;;3.10;99.90;;;;;;5070129;28;20192;-64
2021/03/17 03:24:18;;;;;;;13.48;8.20;;;3.10;99.90;;;;;;5070056;28;20242;-64
2021/03/17 03:26:44;;;;;;;12.53;7.77;;;3.20;99.90;;;;;;5069160;28;20180;-64
2021/03/17 03:29:11;;;;;;;14.68;8.35;;;3.30;99.90;;;;;;5069715;28;20706;-64
2021/03/17 03:31:37;;;;;;;12.88;8.00;;;3.30;99.90;;;;;;5075932;28;20654;-64
2021/03/17 03:34:02;;;;;;;15.60;8.43;;;3.40;99.90;;;;;;5072621;28;20181;-64
2021/03/17 03:36:29;;;;;;;13.93;7.63;;;3.40;99.90;;;;;;5068351;28;20197;-64
2021/03/17 03:38:58;;;;;;;13.57;7.93;;;3.50;99.90;;;;;;5068415;28;20788;-64
2021/03/17 03:41:24;;;;;;;14.27;8.23;;;3.60;99.90;;;;;;5067258;28;20177;-64
2021/03/17 03:43:49;;;;;;;17.40;8.30;;;3.50;99.90;;;;;;5067343;28;20169;-64
2021/03/17 03:46:15;;;;;;;15.47;7.50;;;3.60;99.90;;;;;;5069139;28;20189;-64
2021/03/17 03:48:40;;;;;;;11.80;7.77;;;3.70;99.90;;;;;;5064462;28;20228;-64
2021/03/17 03:51:06;;;;;;;12.10;7.40;;;3.70;99.90;;;;;;5069217;28;20189;-64
2021/03/17 03:53:46;;;;;;;14.40;8.47;;;3.70;99.90;;;;;;5079606;28;20181;-64
2021/03/17 03:56:21;;;;;;;14.10;8.65;;;3.70;99.90;;;;;;5064913;28;21082;-64
2021/03/17 03:58:53;;;;;;;11.90;7.20;;;3.80;99.90;;;;;;5069826;28;20279;-64
2021/03/17 04:01:31;;;;;;;13.10;8.20;;;3.80;99.90;;;;;;5068335;28;20234;-65
2021/03/17 04:04:07;;;;;;;12.70;7.65;;;3.80;99.90;;;;;;5069250;28;20314;-65
2021/03/17 04:06:34;;;;;;;12.75;7.70;;;3.80;99.90;;;;;;5067135;28;20207;-65
2021/03/17 04:09:02;;;;;;;12.30;8.13;;;3.80;99.90;;;;;;5070147;28;20280;-65
2021/03/17 04:11:28;;;;;;;14.05;7.47;;;3.80;99.90;;;;;;5067999;28;20650;-67
2021/03/17 04:13:58;;;;;;;16.45;9.15;;;3.80;99.90;;;;;;5067195;28;20196;-64
2021/03/17 04:16:25;;;;;;;10.50;6.75;;;3.80;99.90;;;;;;5061902;28;20255;-64
2021/03/17 04:18:54;;;;;;;16.23;8.00;;;3.80;99.90;;;;;;5066522;28;20232;-64
2021/03/17 04:21:24;;;;;;;17.08;8.00;;;3.80;99.90;;;;;;5069594;28;20181;-64
2021/03/17 04:23:51;;;;;;;15.43;8.77;;;3.90;99.90;;;;;;5067390;28;20616;-64
2021/03/17 04:26:17;;;;;;;14.27;8.23;;;3.90;99.90;;;;;;5068879;28;20335;-64
2021/03/17 04:28:45;;;;;;;11.98;8.57;;;3.90;99.90;;;;;;5068968;28;20185;-64
2021/03/17 04:31:12;;;;;;;15.05;8.55;;;3.90;99.90;;;;;;5068389;28;20195;-64
2021/03/17 04:33:39;;;;;;;12.27;7.45;;;3.90;99.90;;;;;;5068318;28;20200;-64
2021/03/17 04:36:06;;;;;;;11.18;7.30;;;4.00;99.90;;;;;;5066660;28;20264;-64
2021/03/17 04:38:33;;;;;;;11.90;8.32;;;3.90;99.90;;;;;;5068451;28;20208;-64
2021/03/17 04:41:00;;;;;;;14.70;7.45;;;3.90;99.20;;;;;;5069094;28;20196;-64
2021/03/17 04:43:26;;;;;;;10.68;7.63;;;3.90;99.10;;;;;;5067977;28;20188;-64
2021/03/17 04:45:52;;;;;;;10.90;8.07;;;3.80;97.90;;;;;;5067299;28;20185;-64
2021/03/17 04:48:19;;;;;;;12.05;8.27;;;3.70;99.90;;;;;;5067402;28;20435;-63
2021/03/17 04:50:46;;;;;;;12.50;8.57;;;3.80;99.90;;;;;;5065463;28;20212;-64
2021/03/17 04:53:13;;;;;;;10.82;8.10;;;3.80;99.90;;;;;;5068535;28;20185;-63
2021/03/17 04:55:39;;;;;;;13.02;8.15;;;3.80;99.90;;;;;;5067876;28;20200;-63
2021/03/17 04:58:10;;;;;;;12.40;8.35;;;3.80;99.90;;;;;;5068405;28;20295;-63
2021/03/17 05:00:38;;;;;;;10.80;7.93;;;3.70;99.90;;;;;;5067789;28;20173;-63
2021/03/17 05:03:08;;;;;;;12.93;8.20;;;3.70;99.90;;;;;;5068075;28;20236;-63
2021/03/17 05:05:38;;;;;;;12.05;8.90;;;3.70;99.90;;;;;;5066482;28;20212;-62
2021/03/17 05:08:08;;;;;;;13.75;8.40;;;3.70;99.90;;;;;;5068280;28;20195;-63
2021/03/17 05:10:36;;;;;;;11.60;7.15;;;3.70;99.90;;;;;;5068027;28;20262;-62
2021/03/17 05:13:02;;;;;;;12.30;8.07;;;3.70;99.90;;;;;;5067633;28;20205;-63
2021/03/17 05:15:28;;;;;;;11.13;8.23;;;3.70;99.90;;;;;;5057708;28;20185;-63
2021/03/17 05:17:54;;;;;;;12.43;8.30;;;3.70;99.90;;;;;;5059971;28;20213;-63
2021/03/17 05:20:23;;;;;;;10.47;7.80;;;3.70;99.90;;;;;;5059796;28;20427;-65
2021/03/17 05:22:50;;;;;;;12.55;7.95;;;3.80;99.90;;;;;;5058989;28;20793;-63
2021/03/17 05:25:19;;;;;;;11.32;7.07;;;3.70;99.90;;;;;;5060275;28;20177;-62
2021/03/17 05:27:46;;;;;;;13.18;9.05;;;3.70;99.90;;;;;;5059556;28;20177;-62
2021/03/17 05:30:14;;;;;;;11.98;8.02;;;3.70;99.90;;;;;;5059419;28;20258;-63
2021/03/17 05:32:41;;;;;;;12.13;8.18;;;3.70;99.90;;;;;;5058824;28;20185;-63
2021/03/17 05:35:09;;;;;;;14.10;9.23;;;3.70;99.00;;;;;;5058200;28;20201;-63
2021/03/17 05:37:36;;;;;;;11.88;8.30;;;3.70;99.90;;;;;;5063173;28;20558;-63
2021/03/17 05:40:03;;;;;;;12.55;9.40;;;3.60;99.90;;;;;;5064871;28;20204;-63
2021/03/17 05:42:29;;;;;;;10.93;8.63;;;3.60;99.90;;;;;;5072291;28;20192;-64
2021/03/17 05:44:55;;;;;;;11.13;8.83;;;3.70;99.90;;;;;;5072955;28;20169;-63
2021/03/17 05:47:22;;;;;;;13.57;8.93;;;3.70;99.90;;;;;;5071945;28;20620;-64
2021/03/17 05:49:48;;;;;;;16.00;9.85;;;3.60;99.20;;;;;;5072506;28;20404;-64
2021/03/17 05:52:18;;;;;;;18.48;10.45;;;3.60;99.90;;;;;;5071332;28;20281;-64
2021/03/17 05:54:45;;;;;;;17.15;9.82;;;3.50;99.90;;;;;;5072807;28;20182;-64
2021/03/17 05:57:12;;;;;;;14.75;8.88;;;3.50;99.90;;;;;;5071986;28;20177;-63
2021/03/17 05:59:38;;;;;;;17.33;10.50;;;3.60;99.90;;;;;;5072773;28;20259;-63
2021/03/17 06:02:07;;;;;;;18.02;10.63;;;3.50;99.10;;;;;;5076687;28;20195;-62
2021/03/17 06:04:33;;;;;;;11.07;8.80;;;3.50;99.90;;;;;;5078581;28;20233;-62
2021/03/17 06:07:00;;;;;;;17.60;9.73;;;3.50;99.90;;;;;;5070459;28;20180;-62
2021/03/17 06:09:27;;;;;;;14.18;8.68;;;3.50;99.90;;;;;;5072085;28;20181;-62
2021/03/17 06:11:54;;;;;;;16.17;10.70;;;3.50;99.90;;;;;;5072341;28;20811;-62
2021/03/17 06:14:22;;;;;;;13.82;9.68;;;3.60;99.20;;;;;;5069984;28;20181;-62
2021/03/17 06:17:03;;;;;;;18.63;10.50;;;3.60;95.80;;;;;;5071560;28;20652;-63
2021/03/17 06:19:32;;;;;;;14.32;9.40;;;3.50;95.00;;;;;;5070419;28;20212;-63
2021/03/17 06:21:59;;;;;;;19.02;9.73;;;3.50;98.30;;;;;;5072002;28;20223;-63
2021/03/17 06:24:26;;;;;;;15.68;10.55;;;3.50;94.60;;;;;;5071150;28;20170;-63
2021/03/17 06:26:52;;;;;;;13.93;9.70;;;3.50;99.20;;;;;;5065395;28;20577;-63
2021/03/17 06:29:18;;;;;;;14.25;9.90;;;3.50;99.90;;;;;;5071644;28;20213;-63
2021/03/17 06:31:48;;;;;;;13.50;9.83;;;3.50;99.90;;;;;;5070892;28;20701;-63
2021/03/17 06:34:15;;;;;;;15.70;9.88;;;3.50;99.90;;;;;;5071557;28;20203;-63
2021/03/17 06:36:51;;;;;;;13.02;10.18;;;3.50;98.60;;;;;;5071980;28;20187;-63
2021/03/17 06:39:18;;;;;;;24.42;10.18;;;3.60;99.30;;;;;;5071566;28;20236;-63
2021/03/17 06:41:46;;;;;;;16.70;9.55;;;3.60;99.00;;;;;;5071463;28;20190;-63
2021/03/17 06:44:19;;;;;;;17.30;8.95;;;3.60;96.90;;;;;;5070673;28;20538;-63
2021/03/17 06:46:44;;;;;;;15.18;9.60;;;3.60;93.10;;;;;;5070921;28;20165;-63
2021/03/17 06:49:10;;;;;;;15.33;9.00;;;3.60;93.30;;;;;;5070950;28;20200;-63
2021/03/17 06:51:35;;;;;;;14.23;9.90;;;3.60;95.60;;;;;;5070008;28;20193;-63
2021/03/17 06:54:03;;;;;;;15.17;9.20;;;3.50;99.00;;;;;;5069988;28;20189;-63
2021/03/17 06:56:33;;;;;;;13.50;8.50;;;3.50;99.90;;;;;;5069940;28;20554;-63
2021/03/17 06:59:07;;;;;;;14.23;9.30;;;3.60;94.00;;;;;;5069113;28;20270;-63
2021/03/17 07:01:42;;;;;;;14.48;9.02;;;3.60;94.60;;;;;;5069788;28;20712;-63
2021/03/17 07:04:22;;;;;;;13.05;9.23;;;3.60;93.00;;;;;;5069322;28;20278;-63
2021/03/17 07:06:58;;;;;;;11.80;8.43;;;3.60;93.80;;;;;;5071322;28;20176;-65
2021/03/17 07:09:29;;;;;;;13.68;8.52;;;3.60;94.40;;;;;;5070847;28;20177;-63
2021/03/17 07:12:06;;;;;;;12.23;9.40;;;3.70;90.00;;;;;;5070193;28;20315;-63
2021/03/17 07:14:40;;;;;;;14.35;9.45;;;3.70;91.40;;;;;;5070061;28;20202;-63
2021/03/17 07:17:31;;;;;;;15.07;9.27;;;3.70;88.80;;;;;;5071000;28;20219;-63
2021/03/17 07:19:57;;;;;;;13.20;8.55;;;3.60;91.90;;;;;;5069740;28;20235;-62
2021/03/17 07:22:24;;;;;;;14.83;9.17;;;3.60;93.50;;;;;;5070918;28;20193;-63
2021/03/17 07:24:54;;;;;;;14.65;8.57;;;3.60;91.10;;;;;;5068703;28;20439;-62
2021/03/17 07:27:25;;;;;;;12.90;9.10;;;3.60;90.70;;;;;;5070297;28;20188;-63
2021/03/17 07:30:00;;;;;;;12.73;9.65;;;3.60;91.60;;;;;;5070330;28;20200;-63
2021/03/17 07:32:26;;;;;;;13.32;8.70;;;3.50;93.00;;;;;;5082099;28;20195;-63
2021/03/17 07:34:52;;;;;;;13.15;9.10;;;3.50;97.00;;;;;;5070573;28;20189;-63
2021/03/17 07:37:23;;;;;;;16.40;9.63;;;3.60;97.30;;;;;;5068626;28;20730;-63
2021/03/17 07:39:49;;;;;;;11.38;8.98;;;3.60;97.90;;;;;;5069177;28;20273;-63
2021/03/17 07:42:15;;;;;;;11.27;8.13;;;3.60;95.50;;;;;;5068196;28;20276;-63
2021/03/17 07:44:42;;;;;;;12.53;8.90;;;3.70;93.10;;;;;;5070118;28;20427;-63
2021/03/17 07:47:10;;;;;;;14.57;9.02;;;3.70;91.60;;;;;;5069895;28;20427;-63
2021/03/17 07:49:41;;;;;;;12.43;8.60;;;3.70;91.70;;;;;;5069275;28;20177;-63
2021/03/17 07:52:14;;;;;;;12.52;9.23;;;3.80;81.20;;;;;;5070174;28;20185;-63
2021/03/17 07:54:48;;;;;;;13.98;9.73;;;3.70;87.90;;;;;;5067928;28;20571;-62
2021/03/17 07:57:15;;;;;;;15.75;9.65;;;3.70;91.50;;;;;;5069955;28;20216;-62
2021/03/17 07:59:41;;;;;;;15.48;9.77;;;3.70;91.50;;;;;;5068768;28;20288;-62
2021/03/17 08:02:09;;;;;;;14.57;9.40;;;3.60;93.60;;;;;;5068851;28;20181;-62
2021/03/17 08:04:34;;;;;;;12.75;8.50;;;3.60;94.80;;;;;;5069746;28;21093;-63
2021/03/17 08:07:02;;;;;;;12.70;9.00;;;3.70;96.00;;;;;;5069343;28;20185;-62
2021/03/17 08:09:27;;;;;;;12.23;9.35;;;3.70;99.00;;;;;;5069942;28;20193;-63
2021/03/17 08:11:56;;;;;;;16.17;9.80;;;3.70;98.10;;;;;;5067911;28;20203;-62
2021/03/17 08:14:24;;;;;;;13.20;9.35;;;3.70;97.00;;;;;;5069995;28;20832;-62
2021/03/17 08:16:50;;;;;;;11.65;8.52;;;3.80;91.60;;;;;;5068874;28;20306;-63
2021/03/17 08:19:26;;;;;;;13.63;9.00;;;3.70;95.80;;;;;;5063172;28;20201;-64
2021/03/17 08:21:59;;;;;;;14.13;9.05;;;3.70;94.60;;;;;;5056503;28;20430;-62
2021/03/17 08:24:37;;;;;;;14.75;9.35;;;3.70;94.50;;;;;;5068841;28;20165;-62
2021/03/17 08:27:06;;;;;;;11.70;8.32;;;3.70;96.20;;;;;;5068883;28;20196;-62
2021/03/17 08:29:45;;;;;;;13.90;8.50;;;3.60;97.80;;;;;;5068713;28;20205;-66
2021/03/17 08:32:13;;;;;;;15.40;9.45;;;3.60;99.90;;;;;;5069050;28;20183;-62
2021/03/17 08:34:39;;;;;;;15.48;9.60;;;3.70;99.90;;;;;;5069295;28;20743;-62
2021/03/17 08:37:10;;;;;;;12.40;9.40;;;3.80;99.90;;;;;;5064721;28;20191;-63
2021/03/17 08:39:41;;;;;;;13.57;9.40;;;3.90;99.90;;;;;;5067767;28;20323;-64
2021/03/17 08:42:09;;;;;;;13.57;9.90;;;3.90;98.40;;;;;;5069599;28;20177;-63
2021/03/17 08:44:40;;;;;;;14.35;9.20;;;3.80;96.80;;;;;;5069204;28;20286;-62
2021/03/17 08:47:16;;;;;;;16.02;9.50;;;3.90;98.80;;;;;;5075364;28;20181;-62
2021/03/17 08:49:43;;;;;;;15.27;10.18;;;4.00;98.50;;;;;;5068585;28;20581;-62
2021/03/17 08:52:11;;;;;;;15.65;10.93;;;4.10;99.00;;;;;;5069212;28;20177;-63
2021/03/17 08:54:54;;;;;;;14.05;9.48;;;4.30;92.20;;;;;;5068338;28;20608;-63
2021/03/17 08:57:21;;;;;;;12.60;9.18;;;4.30;90.70;;;;;;5068116;28;20200;-62
2021/03/17 09:00:01;;;;;;;14.30;9.88;;;4.50;86.10;;;;;;5068218;28;20234;-62
2021/03/17 09:02:30;;;;;;;16.20;10.40;;;4.50;64.00;;;;;;5067025;28;20729;-62
2021/03/17 09:04:59;;;;;;;14.80;9.68;;;4.50;67.30;;;;;;5068836;28;20180;-62
2021/03/17 09:07:30;;;;;;;11.85;9.40;;;4.50;68.60;;;;;;5069133;28;20271;-63
2021/03/17 09:09:57;;;;;;;11.52;9.63;;;4.50;66.80;;;;;;5071050;28;20583;-63
2021/03/17 09:12:26;;;;;;;11.50;9.02;;;4.50;75.40;;;;;;5075629;28;20260;-62
2021/03/17 09:14:52;;;;;;;15.25;10.38;;;4.50;78.10;;;;;;5074050;28;20173;-63
2021/03/17 09:17:25;;;;;;;15.67;9.93;;;4.50;76.50;;;;;;5075630;28;20184;-65
2021/03/17 09:20:23;;;;;;;16.98;11.27;;;4.50;75.20;;;;;;5075667;28;20968;-64
2021/03/17 09:22:58;;;;;;;14.90;9.80;;;4.50;69.30;;;;;;5062853;28;20647;-62
2021/03/17 09:25:29;;;;;;;16.83;10.57;;;4.30;74.30;;;;;;5073528;28;20509;-63
2021/03/17 09:28:27;;;;;;;14.68;10.48;;;4.40;77.00;;;;;;5071964;28;20968;-63
2021/03/17 09:31:00;;;;;;;18.38;10.15;;;4.40;81.30;;;;;;5066622;28;20197;-63
2021/03/17 09:33:30;;;;;;;16.63;11.10;;;4.30;86.80;;;;;;5075095;28;20193;-63
2021/03/17 09:36:08;;;;;;;17.13;11.02;;;4.30;81.70;;;;;;5075272;28;20256;-63
2021/03/17 09:38:40;;;;;;;19.45;11.95;;;4.30;83.70;;;;;;5072488;28;20238;-63
2021/03/17 09:41:12;;;;;;;21.15;11.20;;;4.40;79.30;;;;;;5075004;28;20655;-64
2021/03/17 09:43:41;;;;;;;20.25;11.85;;;4.30;78.00;;;;;;5074918;28;20215;-67
2021/03/17 09:46:23;;;;;;;14.38;11.40;;;4.30;72.50;;;;;;5075286;28;20185;-64
2021/03/17 09:48:52;;;;;;;15.23;10.93;;;4.20;74.40;;;;;;5075439;28;20177;-64
2021/03/17 09:51:20;;;;;;;16.92;11.93;;;4.40;68.90;;;;;;5074766;28;20216;-64
2021/03/17 09:53:47;;;;;;;15.40;11.68;;;4.40;70.10;;;;;;5075156;28;20231;-64
2021/03/17 09:56:13;;;;;;;15.05;12.00;;;4.40;73.80;;;;;;5074409;28;20224;-64
2021/03/17 09:58:40;;;;;;;18.08;12.27;;;4.50;77.70;;;;;;5074701;28;20208;-63
2021/03/17 10:01:13;;;;;;;16.65;11.38;;;4.50;71.40;;;;;;5074941;28;20508;-64
2021/03/17 10:03:46;;;;;;;17.30;11.43;;;4.40;73.40;;;;;;5079065;28;20239;-64
2021/03/17 10:06:12;;;;;;;18.40;11.43;;;4.50;72.60;;;;;;5080136;28;20678;-63
2021/03/17 10:08:37;;;;;;;17.87;11.97;;;4.60;61.60;;;;;;5074766;28;20185;-64
2021/03/17 10:11:03;;;;;;;21.07;11.43;;;4.70;70.20;;;;;;5073981;28;20459;-63
2021/03/17 10:13:35;;;;;;;15.80;12.00;;;4.80;64.90;;;;;;5073754;28;20268;-64
2021/03/17 10:16:01;;;;;;;13.23;11.10;;;4.90;59.60;;;;;;5074920;28;20174;-63
2021/03/17 10:18:28;;;;;;;15.10;10.60;;;4.80;50.70;;;;;;5073395;28;20224;-64
2021/03/17 10:20:56;;;;;;;17.35;12.70;;;4.80;54.20;;;;;;5073332;28;20227;-63
2021/03/17 10:23:22;;;;;;;14.98;11.20;;;4.80;52.20;;;;;;5071242;28;20231;-63
2021/03/17 10:25:48;;;;;;;16.30;11.52;;;4.80;47.90;;;;;;5069687;28;20177;-64
2021/03/17 10:28:14;;;;;;;17.80;12.10;;;4.80;53.10;;;;;;5070673;28;20181;-64
2021/03/17 10:30:48;;;;;;;16.52;12.07;;;4.70;45.10;;;;;;5071296;28;20418;-63
2021/03/17 10:33:20;;;;;;;17.77;11.05;;;4.70;46.70;;;;;;5069763;28;20185;-63
2021/03/17 10:35:47;;;;;;;16.13;10.98;;;4.70;49.80;;;;;;5070657;28;20185;-63
2021/03/17 10:38:13;;;;;;;13.48;10.52;;;4.70;55.40;;;;;;5071053;28;20201;-62
2021/03/17 10:40:39;;;;;;;19.53;10.77;;;4.60;53.40;;;;;;5071455;28;20505;-63
2021/03/17 10:43:04;;;;;;;14.57;10.57;;;4.70;53.00;;;;;;5071119;28;20464;-63
2021/03/17 10:45:47;;;;;;;15.80;10.27;;;4.70;45.20;;;;;;5070978;28;20217;-62
2021/03/17 10:48:15;;;;;;;19.73;11.70;;;4.70;51.50;;;;;;5070916;28;20185;-66
2021/03/17 10:50:42;;;;;;;16.55;10.40;;;4.90;45.30;;;;;;5071200;28;20827;-62
2021/03/17 10:53:34;;;;;;;14.02;10.95;;;4.90;50.30;;;;;;5071290;28;20257;-63
2021/03/17 10:56:01;;;;;;;18.33;10.65;;;5.10;51.40;;;;;;5061161;28;20189;-63
2021/03/17 10:58:28;;;;;;;14.77;10.30;;;5.10;41.10;;;;;;5071139;28;20209;-64
2021/03/17 11:00:56;;;;;;;16.92;11.27;;;5.10;38.70;;;;;;5067334;28;20178;-63
2021/03/17 11:03:29;;;;;;;14.05;10.35;;;5.10;37.60;;;;;;5069005;28;20233;-62
2021/03/17 11:06:12;;;;;;;13.85;10.07;;;5.10;36.20;;;;;;5072445;28;20950;-63
2021/03/17 11:08:38;;;;;;;13.35;10.85;;;5.10;23.60;;;;;;5066812;28;20193;-62
2021/03/17 11:11:08;;;;;;;13.30;10.25;;;5.10;28.00;;;;;;5063819;28;20701;-62
2021/03/17 11:13:38;;;;;;;16.90;10.45;;;5.10;25.20;;;;;;5064471;28;20205;-65
2021/03/17 11:16:10;;;;;;;13.95;9.55;;;5.10;29.20;;;;;;5064271;28;20173;-62
2021/03/17 11:18:47;;;;;;;18.83;11.00;;;5.10;27.20;;;;;;5058616;28;20230;-64
2021/03/17 11:21:25;;;;;;;15.77;10.63;;;5.00;32.40;;;;;;5063888;28;20180;-63
2021/03/17 11:23:53;;;;;;;23.17;10.63;;;5.00;35.60;;;;;;5062205;28;20181;-63
2021/03/17 11:26:22;;;;;;;16.05;10.57;;;5.00;39.70;;;;;;5064186;28;20177;-63
2021/03/17 11:28:48;;;;;;;20.27;10.65;;;5.00;41.90;;;;;;5058191;28;20776;-64
2021/03/17 11:31:29;;;;;;;14.40;10.32;;;5.10;39.90;;;;;;5069040;28;20181;-62
2021/03/17 11:33:55;;;;;;;16.90;11.00;;;5.10;35.30;;;;;;5063146;28;20900;-63
2021/03/17 11:36:21;;;;;;;16.60;11.25;;;5.00;48.20;;;;;;5067668;28;20185;-63
2021/03/17 11:38:47;;;;;;;15.73;11.33;;;4.80;51.50;;;;;;5065071;28;20644;-63
2021/03/17 11:41:13;;;;;;;16.43;11.60;;;4.80;61.80;;;;;;5067200;28;20186;-62
2021/03/17 11:43:39;;;;;;;13.25;9.57;;;5.00;71.80;;;;;;5065451;28;20181;-63
2021/03/17 11:46:05;;;;;;;14.40;9.95;;;4.90;59.10;;;;;;5063485;28;20193;-63
2021/03/17 11:48:31;;;;;;;14.37;10.33;;;4.90;62.70;;;;;;5069059;28;20181;-65
2021/03/17 11:51:00;;;;;;;16.77;10.97;;;4.80;67.90;;;;;;5067957;28;20187;-62
2021/03/17 11:53:26;;;;;;;18.75;10.18;;;4.70;84.00;;;;;;5068160;28;20769;-63
2021/03/17 11:55:52;;;;;;;14.02;10.68;;;4.60;95.10;;;;;;5066409;28;20192;-65
2021/03/17 11:58:18;;;;;;;15.03;10.53;;;4.50;99.60;;;;;;5068699;28;20283;-63
2021/03/17 12:00:44;;;;;;;20.70;11.18;;;4.40;97.80;;;;;;5068406;28;20184;-63
2021/03/17 12:03:13;;;;;;;16.37;11.57;;;4.30;98.00;;;;;;5068667;28;20236;-63
2021/03/17 12:05:41;;;;;;;17.02;12.00;;;4.10;97.30;;;;;;5069503;28;20185;-63
2021/03/17 12:08:06;;;;;;;16.70;10.93;;;3.90;97.90;;;;;;5067886;28;20262;-62
2021/03/17 12:10:32;;;;;;;17.23;12.17;;;3.80;99.90;;;;;;5068537;28;20189;-63
2021/03/17 12:12:58;;;;;;;16.30;10.73;;;3.70;99.90;;;;;;5069320;28;20184;-63
2021/03/17 12:15:25;;;;;;;15.53;9.90;;;3.70;99.90;;;;;;5068090;28;20181;-61
2021/03/17 12:17:52;;;;;;;13.85;10.80;;;3.80;99.90;;;;;;5068413;28;20459;-61
2021/03/17 12:20:21;;;;;;;17.38;10.55;;;3.80;99.90;;;;;;5078125;28;20583;-61
2021/03/17 12:22:47;;;;;;;16.75;11.05;;;3.90;99.90;;;;;;5067117;28;20286;-61
2021/03/17 12:25:13;;;;;;;16.58;9.30;;;3.90;99.90;;;;;;5068873;28;20181;-60
2021/03/17 12:27:40;;;;;;;16.70;10.83;;;3.90;99.90;;;;;;5069114;28;20188;-62
2021/03/17 12:30:12;;;;;;;17.65;11.27;;;4.00;99.90;;;;;;5068583;28;20423;-61
2021/03/17 12:32:40;;;;;;;16.77;11.13;;;4.00;99.90;;;;;;5068147;28;20219;-61
2021/03/17 12:35:07;;;;;;;20.55;12.05;;;3.90;99.90;;;;;;5068194;28;20195;-62
2021/03/17 12:37:33;;;;;;;15.75;11.25;;;3.90;99.90;;;;;;5064605;28;20192;-61
2021/03/17 12:39:59;;;;;;;17.20;11.13;;;3.80;99.90;;;;;;5065106;28;20548;-62
2021/03/17 12:42:24;;;;;;;17.40;11.40;;;3.80;99.90;;;;;;5065955;28;20181;-61
2021/03/17 12:44:50;;;;;;;16.10;11.50;;;3.70;99.90;;;;;;5065891;28;20559;-62
2021/03/17 12:47:16;;;;;;;16.87;11.47;;;3.60;99.90;;;;;;5066253;28;20181;-62
2021/03/17 12:49:42;;;;;;;16.10;12.60;;;3.60;99.90;;;;;;5065866;28;20173;-62
2021/03/17 12:52:09;;;;;;;19.27;12.07;;;3.60;99.90;;;;;;5065067;28;20423;-63
2021/03/17 12:54:34;;;;;;;18.92;12.77;;;3.70;99.90;;;;;;5065743;28;20234;-62
2021/03/17 12:57:00;;;;;;;16.07;11.20;;;3.70;99.90;;;;;;5064847;28;20178;-62